Time;durP1;ratioP1;P1;durP2;ratioP2;P2;SDS_P1;SDS_P2;PMS_P1;PMS_P2;Temp;Humidity;BMP_temperature;BMP_pressure;BME280_temperature;BME280_humidity;BME280_pressure;Samples;Min_cycle;Max_cycle;Signal;HPM_P1;HPM_P2
2022/06/10 00:00:09;;;;;;;6.67;2.17;;;13.50;99.90;;;;;;5076429;28;20589;-62
2022/06/10 00:02:36;;;;;;;3.53;1.80;;;13.40;99.90;;;;;;5076284;28;20209;-62
2022/06/10 00:05:03;;;;;;;3.80;1.60;;;13.40;99.90;;;;;;5075845;28;20221;-62
2022/06/10 00:07:34;;;;;;;4.70;2.30;;;13.40;99.90;;;;;;5075084;28;20228;-62
2022/06/10 00:10:01;;;;;;;3.30;2.10;;;13.30;99.90;;;;;;5074762;28;20211;-61
2022/06/10 00:12:29;;;;;;;4.60;1.87;;;13.30;99.90;;;;;;5074900;28;20212;-62
2022/06/10 00:14:56;;;;;;;7.13;2.20;;;13.20;99.90;;;;;;5074676;28;20208;-62
2022/06/10 00:17:22;;;;;;;3.47;1.90;;;13.20;99.90;;;;;;5074953;28;20229;-62
2022/06/10 00:19:49;;;;;;;3.53;1.70;;;13.10;99.90;;;;;;5074609;28;20216;-62
2022/06/10 00:22:16;;;;;;;3.17;1.80;;;13.10;99.90;;;;;;5074851;28;20204;-62
2022/06/10 00:24:43;;;;;;;4.23;2.10;;;13.00;99.90;;;;;;5074349;28;20201;-62
2022/06/10 00:27:10;;;;;;;3.67;1.77;;;13.00;99.90;;;;;;5074270;28;20235;-62
2022/06/10 00:29:38;;;;;;;4.20;1.93;;;12.90;99.90;;;;;;5074723;28;20212;-62
2022/06/10 00:32:05;;;;;;;4.13;2.07;;;12.90;99.90;;;;;;5074646;28;20219;-62
2022/06/10 00:34:35;;;;;;;4.53;2.07;;;12.80;99.90;;;;;;5074841;28;20213;-62
2022/06/10 00:37:02;;;;;;;2.20;1.90;;;12.80;99.90;;;;;;5074353;28;20283;-62
2022/06/10 00:39:28;;;;;;;6.23;1.80;;;12.80;99.90;;;;;;5074299;28;20205;-62
2022/06/10 00:41:55;;;;;;;2.40;1.60;;;12.70;99.90;;;;;;5074266;28;20200;-62
2022/06/10 00:44:39;;;;;;;3.40;1.70;;;12.80;99.90;;;;;;5074124;28;20205;-62
2022/06/10 00:47:15;;;;;;;3.17;1.90;;;12.80;99.90;;;;;;5073880;28;20225;-62
2022/06/10 00:49:45;;;;;;;1.93;1.73;;;12.80;99.90;;;;;;5074011;28;20216;-62
2022/06/10 00:52:22;;;;;;;3.97;1.80;;;12.80;99.90;;;;;;5073935;28;20209;-62
2022/06/10 00:54:51;;;;;;;4.93;1.93;;;12.80;99.90;;;;;;5073933;28;20668;-62
2022/06/10 00:57:21;;;;;;;4.53;2.30;;;12.70;99.90;;;;;;5074129;28;20233;-62
2022/06/10 00:59:53;;;;;;;3.23;2.00;;;12.70;99.90;;;;;;5074486;28;20596;-62
2022/06/10 01:02:22;;;;;;;3.73;2.00;;;12.70;99.90;;;;;;5074360;28;20208;-62
2022/06/10 01:04:49;;;;;;;2.60;1.90;;;12.60;99.90;;;;;;5074485;28;20208;-62
2022/06/10 01:07:19;;;;;;;7.73;2.00;;;12.60;99.90;;;;;;5074855;28;20241;-62
2022/06/10 01:09:48;;;;;;;4.40;1.73;;;12.60;99.90;;;;;;5073838;28;20220;-62
2022/06/10 01:12:52;;;;;;;4.87;1.70;;;12.60;99.90;;;;;;5074130;28;20577;-62
2022/06/10 01:15:33;;;;;;;2.80;2.07;;;12.60;99.90;;;;;;5073886;28;20185;-62
2022/06/10 01:18:13;;;;;;;4.30;2.07;;;12.60;99.90;;;;;;5074316;28;20209;-62
2022/06/10 01:20:52;;;;;;;4.13;2.00;;;12.50;99.90;;;;;;5073834;28;20710;-62
2022/06/10 01:23:49;;;;;;;3.03;2.20;;;12.40;99.90;;;;;;5074153;28;20208;-62
2022/06/10 01:30:08;;;;;;;3.80;2.10;;;12.30;99.90;;;;;;5074356;28;20571;-62
2022/06/10 01:32:45;;;;;;;3.20;1.93;;;12.30;99.90;;;;;;5074923;28;20208;-62
2022/06/10 01:35:20;;;;;;;3.80;1.90;;;12.30;99.90;;;;;;5074318;28;20589;-62
2022/06/10 01:37:58;;;;;;;3.50;2.30;;;12.30;99.90;;;;;;5074052;28;20207;-62
2022/06/10 01:40:35;;;;;;;3.60;1.73;;;12.30;99.90;;;;;;5074586;28;20208;-62
2022/06/10 01:43:08;;;;;;;3.27;1.90;;;12.20;99.90;;;;;;5074374;28;20208;-62
2022/06/10 01:45:40;;;;;;;4.87;2.30;;;12.20;99.90;;;;;;5073328;28;20598;-62
2022/06/10 01:48:16;;;;;;;3.13;2.27;;;12.20;99.90;;;;;;5073562;28;20205;-62
2022/06/10 01:50:47;;;;;;;7.30;2.07;;;12.20;99.90;;;;;;5073755;28;20211;-63
2022/06/10 01:53:21;;;;;;;4.47;2.40;;;12.00;99.90;;;;;;5073501;28;20209;-62
2022/06/10 01:55:53;;;;;;;4.00;2.00;;;11.80;99.90;;;;;;5073349;28;20231;-62
2022/06/10 01:58:24;;;;;;;6.33;2.00;;;11.70;99.90;;;;;;5073731;28;20201;-62
2022/06/10 02:00:58;;;;;;;2.67;1.80;;;11.70;99.90;;;;;;5073604;28;20204;-62
2022/06/10 02:03:31;;;;;;;7.13;1.83;;;11.70;99.90;;;;;;5073851;28;20212;-62
2022/06/10 02:06:03;;;;;;;3.83;2.00;;;11.60;99.90;;;;;;5073736;28;20296;-62
2022/06/10 02:08:33;;;;;;;5.70;2.23;;;11.60;99.90;;;;;;5074522;28;20232;-62
2022/06/10 02:11:04;;;;;;;2.43;1.80;;;11.50;99.90;;;;;;5073509;28;20201;-62
2022/06/10 02:13:35;;;;;;;2.83;1.90;;;11.50;99.90;;;;;;5076107;28;20205;-62
2022/06/10 02:16:05;;;;;;;3.90;2.03;;;11.50;99.90;;;;;;5078983;28;20221;-62
2022/06/10 02:18:39;;;;;;;3.33;2.03;;;11.60;99.90;;;;;;5077377;28;20205;-62
2022/06/10 02:21:09;;;;;;;7.33;2.07;;;11.70;99.90;;;;;;5078475;28;20200;-62
2022/06/10 02:23:38;;;;;;;5.43;2.00;;;11.60;99.90;;;;;;5077255;28;20201;-62
2022/06/10 02:26:07;;;;;;;3.50;2.03;;;11.60;99.90;;;;;;5077597;28;20235;-62
2022/06/10 02:28:37;;;;;;;3.93;2.07;;;11.70;99.90;;;;;;5077436;28;20201;-61
2022/06/10 02:31:09;;;;;;;4.67;2.00;;;11.60;99.90;;;;;;5077510;28;20205;-62
2022/06/10 02:33:38;;;;;;;2.47;2.20;;;11.60;99.90;;;;;;5077175;28;20212;-62
2022/06/10 02:36:11;;;;;;;3.17;2.07;;;11.60;99.90;;;;;;5077315;28;20228;-62
2022/06/10 02:38:45;;;;;;;5.10;1.97;;;11.60;99.90;;;;;;5076906;28;20209;-62
2022/06/10 02:41:20;;;;;;;5.73;2.10;;;11.60;99.90;;;;;;5077208;28;20204;-63
2022/06/10 02:43:56;;;;;;;2.17;1.97;;;11.70;99.90;;;;;;5077062;28;20205;-62
2022/06/10 02:46:27;;;;;;;5.27;2.30;;;11.60;99.90;;;;;;5077509;28;20239;-62
2022/06/10 02:49:04;;;;;;;5.27;2.20;;;11.60;99.90;;;;;;5076808;28;20209;-62
2022/06/10 02:51:31;;;;;;;3.90;2.03;;;11.60;99.90;;;;;;5077032;28;20205;-63
2022/06/10 02:53:59;;;;;;;2.30;1.73;;;11.50;99.90;;;;;;5077230;28;20228;-62
2022/06/10 02:56:29;;;;;;;5.13;2.33;;;11.50;99.90;;;;;;5077620;28;20728;-62
2022/06/10 03:01:52;;;;;;;2.73;1.90;;;11.60;99.90;;;;;;5077869;28;20271;-62
2022/06/10 03:04:32;;;;;;;6.93;2.23;;;11.60;99.90;;;;;;5077539;28;20236;-62
2022/06/10 03:07:22;;;;;;;2.97;2.03;;;11.60;99.90;;;;;;5077463;28;20611;-63
2022/06/10 03:09:59;;;;;;;3.80;2.23;;;11.70;99.90;;;;;;5077824;28;20216;-62
2022/06/10 03:12:34;;;;;;;6.00;2.50;;;11.60;99.90;;;;;;5077956;28;20216;-62
2022/06/10 03:15:14;;;;;;;3.53;2.30;;;11.60;99.90;;;;;;5077239;28;20207;-62
2022/06/10 03:17:49;;;;;;;6.17;2.63;;;11.60;99.90;;;;;;5078138;28;20205;-62
2022/06/10 03:20:22;;;;;;;7.07;2.50;;;11.60;99.90;;;;;;5076851;28;20203;-62
2022/06/10 03:23:00;;;;;;;3.47;2.20;;;11.70;99.90;;;;;;5077676;28;20209;-62
2022/06/10 03:25:31;;;;;;;5.63;2.50;;;11.70;99.90;;;;;;5076747;28;20316;-62
2022/06/10 03:28:06;;;;;;;5.67;2.47;;;11.70;99.90;;;;;;5076863;28;20208;-62
2022/06/10 03:30:37;;;;;;;2.40;1.90;;;11.70;99.90;;;;;;5076515;28;20200;-63
2022/06/10 03:33:09;;;;;;;5.40;2.50;;;11.70;99.90;;;;;;5075876;28;20205;-62
2022/06/10 03:35:43;;;;;;;6.50;2.20;;;11.70;99.90;;;;;;5076241;28;20221;-62
2022/06/10 03:38:11;;;;;;;7.70;2.17;;;11.60;99.90;;;;;;5076272;28;20239;-62
2022/06/10 03:40:38;;;;;;;7.40;2.03;;;11.60;99.90;;;;;;5075895;28;20205;-62
2022/06/10 03:43:08;;;;;;;5.43;2.47;;;11.70;99.90;;;;;;5076229;28;20201;-62
2022/06/10 03:45:39;;;;;;;3.80;2.17;;;11.80;99.90;;;;;;5076007;28;20225;-62
2022/06/10 03:48:07;;;;;;;4.40;2.23;;;11.80;99.90;;;;;;5074943;28;20211;-61
2022/06/10 03:50:39;;;;;;;5.37;2.20;;;11.70;99.90;;;;;;5074681;28;20209;-62
2022/06/10 03:53:06;;;;;;;4.70;2.47;;;11.70;99.90;;;;;;5074326;28;20236;-62
2022/06/10 03:55:33;;;;;;;3.37;2.17;;;11.80;99.90;;;;;;5074738;28;20229;-62
2022/06/10 03:57:59;;;;;;;3.80;2.50;;;11.70;99.90;;;;;;5074681;28;20258;-62
2022/06/10 04:00:28;;;;;;;2.57;1.90;;;11.60;99.90;;;;;;5074928;28;20613;-62
2022/06/10 04:02:55;;;;;;;3.57;2.30;;;11.70;99.90;;;;;;5075734;28;20228;-62
2022/06/10 04:05:22;;;;;;;4.73;2.30;;;11.70;99.90;;;;;;5074542;28;20216;-62
2022/06/10 04:07:51;;;;;;;6.90;2.07;;;11.80;99.90;;;;;;5075050;28;20235;-62
2022/06/10 04:10:19;;;;;;;4.23;1.90;;;11.90;99.90;;;;;;5075518;28;20732;-62
2022/06/10 04:12:46;;;;;;;13.80;2.53;;;11.90;99.90;;;;;;5074461;28;20205;-62
2022/06/10 04:15:14;;;;;;;3.67;2.10;;;12.10;99.90;;;;;;5074796;28;20207;-62
2022/06/10 04:17:41;;;;;;;3.93;2.23;;;12.20;99.90;;;;;;5073810;28;20299;-63
2022/06/10 04:20:12;;;;;;;4.77;2.43;;;12.30;99.90;;;;;;5073611;28;20231;-62
2022/06/10 04:22:39;;;;;;;4.30;2.40;;;12.40;99.90;;;;;;5073821;28;20208;-63
2022/06/10 04:25:08;;;;;;;8.60;2.47;;;12.50;99.90;;;;;;5073765;28;20232;-63
2022/06/10 04:27:34;;;;;;;3.20;2.40;;;12.60;99.90;;;;;;5073339;28;20225;-62
2022/06/10 04:30:01;;;;;;;4.43;2.20;;;12.60;99.90;;;;;;5073527;28;20240;-62
2022/06/10 04:32:28;;;;;;;8.23;2.30;;;12.70;99.90;;;;;;5073708;28;20296;-62
2022/06/10 04:34:55;;;;;;;4.03;2.50;;;12.90;99.90;;;;;;5073738;28;20236;-62
2022/06/10 04:37:22;;;;;;;4.97;2.33;;;13.00;99.90;;;;;;5073429;28;20217;-61
2022/06/10 04:39:49;;;;;;;4.97;2.10;;;13.10;99.90;;;;;;5073438;28;20295;-61
2022/06/10 04:42:17;;;;;;;3.73;2.07;;;13.30;99.90;;;;;;5073382;28;20668;-61
2022/06/10 04:44:44;;;;;;;7.00;2.50;;;13.50;99.90;;;;;;5073844;28;20209;-62
2022/06/10 04:47:11;;;;;;;3.20;1.87;;;13.90;99.90;;;;;;5073814;28;20757;-62
2022/06/10 04:49:39;;;;;;;5.97;1.90;;;14.60;99.90;;;;;;5073551;28;20204;-62
2022/06/10 04:52:06;;;;;;;4.63;1.80;;;15.80;99.90;;;;;;5073677;28;20209;-62
2022/06/10 04:54:33;;;;;;;2.87;1.27;;;17.50;99.90;;;;;;5073611;28;20204;-63
2022/06/10 04:57:01;;;;;;;2.33;1.40;;;19.10;99.90;;;;;;5073678;28;20325;-64
2022/06/10 04:59:29;;;;;;;4.90;1.83;;;20.60;99.90;;;;;;5073902;28;20204;-63
2022/06/10 05:01:56;;;;;;;2.67;1.30;;;21.90;99.90;;;;;;5074068;28;20224;-63
2022/06/10 05:04:23;;;;;;;4.25;1.30;;;22.90;99.90;;;;;;5074103;28;20211;-63
2022/06/10 05:06:50;;;;;;;2.63;1.23;;;23.70;99.90;;;;;;5075050;28;20267;-63
2022/06/10 05:09:17;;;;;;;2.33;1.38;;;24.60;99.90;;;;;;5074547;28;20569;-64
2022/06/10 05:11:44;;;;;;;2.47;1.48;;;25.50;99.90;;;;;;5075218;28;20356;-63
2022/06/10 05:14:11;;;;;;;2.90;1.23;;;26.00;99.30;;;;;;5075007;28;20205;-64
2022/06/10 05:16:39;;;;;;;2.95;1.23;;;26.50;97.40;;;;;;5075630;28;20225;-63
2022/06/10 05:19:06;;;;;;;3.88;1.20;;;27.00;95.40;;;;;;5076265;28;20216;-63
2022/06/10 05:21:33;;;;;;;3.28;1.20;;;27.50;93.80;;;;;;5075861;28;20207;-63
2022/06/10 05:24:00;;;;;;;2.97;1.10;;;28.20;91.50;;;;;;5076249;28;20216;-64
2022/06/10 05:26:29;;;;;;;1.98;1.05;;;28.80;89.10;;;;;;5074929;28;20240;-63
2022/06/10 05:28:55;;;;;;;2.75;1.13;;;29.40;85.70;;;;;;5075008;28;20295;-64
2022/06/10 05:31:22;;;;;;;4.00;1.55;;;29.90;82.60;;;;;;5074546;28;20223;-64
2022/06/10 05:36:35;;;;;;;4.00;1.23;;;30.80;75.50;;;;;;5074159;28;20223;-64
2022/06/10 05:39:02;;;;;;;4.82;1.33;;;31.40;72.80;;;;;;5073312;28;20730;-64
2022/06/10 05:44:12;;;;;;;3.60;1.52;;;32.00;68.90;;;;;;5074245;28;20187;-64
2022/06/10 05:46:39;;;;;;;4.30;1.40;;;32.10;66.90;;;;;;5075254;28;20233;-64
2022/06/10 05:49:07;;;;;;;3.28;1.85;;;32.40;65.50;;;;;;5076734;28;20209;-64
2022/06/10 05:51:34;;;;;;;5.38;1.30;;;32.80;63.60;;;;;;5076926;28;20676;-64
2022/06/10 05:54:01;;;;;;;5.65;1.60;;;33.10;61.90;;;;;;5077185;28;20213;-64
2022/06/10 05:56:28;;;;;;;2.80;1.40;;;33.50;60.60;;;;;;5076873;28;20247;-64
2022/06/10 05:58:54;;;;;;;2.70;1.20;;;34.00;59.20;;;;;;5076783;28;20201;-64
2022/06/10 06:01:21;;;;;;;3.72;1.38;;;34.70;56.70;;;;;;5076999;28;20215;-64
2022/06/10 06:03:48;;;;;;;5.30;1.25;;;35.30;55.70;;;;;;5076819;28;20201;-64
2022/06/10 06:06:16;;;;;;;4.07;1.55;;;35.90;54.50;;;;;;5076578;28;20264;-63
2022/06/10 06:08:43;;;;;;;2.85;1.38;;;36.40;52.60;;;;;;5076499;28;20782;-63
2022/06/10 06:11:10;;;;;;;3.15;1.20;;;36.40;52.70;;;;;;5076572;28;20208;-63
2022/06/10 06:13:37;;;;;;;3.38;1.30;;;36.60;51.50;;;;;;5076297;28;20708;-64
2022/06/10 06:16:04;;;;;;;3.83;1.40;;;36.90;50.80;;;;;;5076136;28;20236;-64
2022/06/10 06:18:31;;;;;;;5.25;1.60;;;37.20;50.20;;;;;;5075795;28;20201;-64
2022/06/10 06:20:58;;;;;;;3.05;1.92;;;37.90;48.90;;;;;;5075529;28;20212;-64
2022/06/10 06:23:26;;;;;;;3.35;1.20;;;38.30;48.00;;;;;;5075711;28;20205;-65
2022/06/10 06:25:53;;;;;;;3.03;1.20;;;38.70;47.10;;;;;;5075541;28;20604;-65
2022/06/10 06:28:20;;;;;;;4.97;1.48;;;39.10;46.70;;;;;;5075632;28;20224;-64
2022/06/10 06:30:47;;;;;;;3.72;1.25;;;39.00;46.60;;;;;;5075714;28;20201;-64
2022/06/10 06:33:13;;;;;;;4.13;1.50;;;38.50;46.20;;;;;;5075642;28;20553;-64
2022/06/10 06:35:45;;;;;;;4.57;1.38;;;37.80;47.10;;;;;;5075637;28;20229;-63
2022/06/10 06:38:12;;;;;;;2.75;1.20;;;36.70;48.80;;;;;;5075693;28;20220;-63
2022/06/10 06:40:41;;;;;;;4.10;1.30;;;35.00;50.80;;;;;;5076243;28;20205;-63
2022/06/10 06:43:09;;;;;;;3.47;1.40;;;33.90;52.00;;;;;;5076041;28;20212;-64
2022/06/10 06:45:36;;;;;;;4.03;1.40;;;34.40;52.20;;;;;;5075826;28;20477;-65
2022/06/10 06:48:04;;;;;;;2.58;1.25;;;35.60;50.10;;;;;;5076304;28;20220;-64
2022/06/10 06:50:33;;;;;;;5.30;1.80;;;36.80;48.40;;;;;;5075582;28;20227;-64
2022/06/10 06:53:00;;;;;;;3.80;1.50;;;37.10;46.40;;;;;;5076058;28;20213;-64
2022/06/10 06:55:27;;;;;;;7.03;1.92;;;36.10;47.30;;;;;;5076342;28;20229;-64
2022/06/10 06:57:55;;;;;;;3.08;1.50;;;36.80;45.90;;;;;;5075788;28;20214;-64
2022/06/10 07:00:26;;;;;;;5.35;1.40;;;37.60;45.00;;;;;;5076751;28;20622;-64
2022/06/10 07:02:52;;;;;;;6.10;1.75;;;35.70;46.60;;;;;;5077168;28;20204;-63
2022/06/10 07:05:20;;;;;;;6.82;1.55;;;33.90;48.60;;;;;;5077833;28;20212;-64
2022/06/10 07:07:47;;;;;;;7.43;1.73;;;32.90;50.90;;;;;;5076909;28;20225;-63
2022/06/10 07:10:17;;;;;;;5.10;1.70;;;31.80;53.20;;;;;;5076589;28;20205;-64
2022/06/10 07:12:44;;;;;;;4.20;1.80;;;31.50;54.10;;;;;;5076880;28;20690;-65
2022/06/10 07:15:12;;;;;;;3.88;1.40;;;33.00;51.80;;;;;;5076152;28;20209;-65
2022/06/10 07:17:39;;;;;;;8.57;1.60;;;34.30;50.10;;;;;;5077267;28;20208;-63
2022/06/10 07:20:08;;;;;;;4.72;1.73;;;33.70;50.50;;;;;;5075672;28;20208;-65
2022/06/10 07:22:35;;;;;;;2.85;1.48;;;33.50;50.90;;;;;;5076579;28;20835;-62
2022/06/10 07:25:02;;;;;;;4.22;1.92;;;32.70;51.90;;;;;;5071872;28;20466;-65
2022/06/10 07:27:28;;;;;;;5.35;1.92;;;31.60;53.50;;;;;;5071988;28;20231;-63
2022/06/10 07:29:55;;;;;;;3.88;1.77;;;31.40;55.10;;;;;;5053802;28;20570;-63
2022/06/10 07:32:24;;;;;;;5.00;2.38;;;33.20;52.70;;;;;;5054497;28;20697;-65
2022/06/10 07:34:51;;;;;;;3.47;2.75;;;35.00;49.80;;;;;;5056049;28;20297;-64
2022/06/10 07:37:17;;;;;;;3.28;1.40;;;36.60;47.70;;;;;;5055266;28;20233;-64
2022/06/10 07:39:44;;;;;;;4.68;2.20;;;37.70;45.90;;;;;;5054626;28;20219;-64
2022/06/10 07:42:10;;;;;;;2.42;1.40;;;38.60;45.20;;;;;;5054612;28;20311;-64
2022/06/10 07:44:39;;;;;;;4.55;1.70;;;39.00;42.90;;;;;;5055815;28;20658;-64
2022/06/10 07:47:08;;;;;;;3.70;1.60;;;38.80;42.90;;;;;;5055479;28;20229;-64
2022/06/10 07:49:37;;;;;;;3.55;1.60;;;38.60;42.80;;;;;;5054174;28;20209;-62
2022/06/10 07:52:04;;;;;;;4.63;1.63;;;36.10;45.80;;;;;;5053040;28;20212;-62
2022/06/10 07:54:31;;;;;;;2.38;1.27;;;35.30;47.60;;;;;;5053370;28;20205;-63
2022/06/10 07:56:58;;;;;;;4.28;1.48;;;35.70;46.70;;;;;;5053253;28;20279;-63
2022/06/10 07:59:25;;;;;;;4.68;1.40;;;36.70;46.30;;;;;;5053182;28;20565;-63
2022/06/10 08:01:52;;;;;;;4.47;1.60;;;36.70;45.80;;;;;;5054164;28;20494;-62
2022/06/10 08:04:19;;;;;;;5.20;1.80;;;37.60;44.90;;;;;;5053599;28;20709;-63
2022/06/10 08:06:47;;;;;;;6.03;1.88;;;38.90;43.10;;;;;;5053610;28;20239;-65
2022/06/10 08:09:20;;;;;;;4.85;1.50;;;40.30;41.60;;;;;;5052713;28;20787;-64
2022/06/10 08:11:47;;;;;;;4.07;1.42;;;41.20;40.20;;;;;;5047764;28;20311;-63
2022/06/10 08:14:14;;;;;;;5.15;1.50;;;41.60;39.50;;;;;;5051838;28;20201;-61
2022/06/10 08:16:41;;;;;;;5.68;1.88;;;41.00;39.70;;;;;;5051617;28;20235;-63
2022/06/10 08:19:08;;;;;;;5.50;1.67;;;39.10;41.90;;;;;;5053822;28;20197;-63
2022/06/10 08:24:21;;;;;;;4.03;1.70;;;38.60;42.80;;;;;;5052077;28;20207;-63
2022/06/10 08:26:47;;;;;;;7.82;1.80;;;38.60;42.10;;;;;;5054852;28;20240;-64
2022/06/10 08:29:14;;;;;;;2.85;1.40;;;37.60;43.90;;;;;;5056044;28;20304;-65
2022/06/10 08:31:41;;;;;;;3.65;1.63;;;38.20;43.10;;;;;;5055130;28;20217;-66
2022/06/10 08:34:08;;;;;;;3.78;1.50;;;37.70;43.90;;;;;;5056879;28;20215;-63
2022/06/10 08:36:35;;;;;;;5.72;1.77;;;37.90;43.40;;;;;;5053583;28;20229;-63
2022/06/10 08:39:01;;;;;;;3.08;1.23;;;38.60;43.00;;;;;;5052233;28;20205;-62
2022/06/10 08:41:38;;;;;;;4.75;1.83;;;39.30;42.00;;;;;;5054135;28;20225;-64
2022/06/10 08:44:12;;;;;;;4.97;1.63;;;39.60;41.40;;;;;;5053825;28;20209;-61
2022/06/10 08:47:07;;;;;;;6.47;1.67;;;38.80;41.70;;;;;;5052556;28;20225;-61
2022/06/10 08:49:58;;;;;;;6.10;1.85;;;38.30;42.50;;;;;;5052306;28;20212;-60
2022/06/10 08:52:36;;;;;;;4.13;1.92;;;36.80;43.50;;;;;;5052774;28;20205;-66
2022/06/10 08:55:14;;;;;;;5.63;1.73;;;34.00;47.30;;;;;;5054487;28;20240;-61
2022/06/10 08:57:46;;;;;;;5.20;1.55;;;31.10;51.40;;;;;;5053848;28;20208;-60
2022/06/10 09:00:17;;;;;;;6.68;1.88;;;28.90;55.40;;;;;;5053409;28;20206;-60
2022/06/10 09:02:49;;;;;;;5.72;1.95;;;26.10;60.70;;;;;;5054113;28;20220;-60
2022/06/10 09:05:20;;;;;;;4.63;1.73;;;24.00;67.60;;;;;;5053488;28;20685;-64
2022/06/10 09:07:50;;;;;;;3.72;1.65;;;23.10;70.60;;;;;;5053043;28;20638;-61
2022/06/10 09:10:20;;;;;;;6.40;1.85;;;23.00;71.60;;;;;;5055405;28;20209;-62
2022/06/10 09:13:21;;;;;;;5.00;1.80;;;23.00;72.50;;;;;;5054689;28;20217;-61
2022/06/10 09:15:54;;;;;;;4.18;1.73;;;23.10;72.60;;;;;;5049359;28;20289;-61
2022/06/10 09:18:27;;;;;;;7.47;1.90;;;23.40;72.30;;;;;;5053050;28;20256;-60
2022/06/10 09:21:01;;;;;;;3.45;1.80;;;23.50;73.50;;;;;;5053208;28;20729;-60
2022/06/10 09:23:35;;;;;;;5.15;2.00;;;23.60;73.10;;;;;;5057027;28;20673;-60
2022/06/10 09:26:08;;;;;;;2.92;1.58;;;23.60;73.10;;;;;;5057775;28;20232;-60
2022/06/10 09:28:37;;;;;;;4.25;1.52;;;23.80;72.80;;;;;;5057162;28;20267;-61
2022/06/10 09:31:10;;;;;;;6.32;1.90;;;23.80;72.40;;;;;;5057495;28;20209;-60
2022/06/10 09:33:44;;;;;;;3.95;1.50;;;23.60;69.70;;;;;;5057774;28;20213;-61
2022/06/10 09:36:18;;;;;;;4.85;1.60;;;23.40;68.50;;;;;;5058263;28;20225;-60
2022/06/10 09:38:52;;;;;;;5.00;1.48;;;23.20;68.90;;;;;;5057062;28;20212;-60
2022/06/10 09:41:31;;;;;;;5.18;1.67;;;23.40;67.70;;;;;;5057816;28;20296;-61
2022/06/10 09:44:10;;;;;;;3.90;1.50;;;23.60;69.00;;;;;;5058102;28;20290;-61
2022/06/10 09:46:58;;;;;;;4.80;1.60;;;23.70;69.10;;;;;;5057823;28;20705;-62
2022/06/10 09:49:46;;;;;;;4.28;1.65;;;24.00;69.30;;;;;;5058123;28;20227;-60
2022/06/10 09:52:20;;;;;;;5.32;1.60;;;23.90;69.30;;;;;;5057708;28;20213;-61
2022/06/10 09:55:02;;;;;;;5.93;1.40;;;23.80;67.40;;;;;;5058165;28;20617;-60
2022/06/10 09:58:02;;;;;;;6.68;1.70;;;23.80;66.30;;;;;;5058578;28;20247;-60
2022/06/10 10:00:37;;;;;;;3.85;1.40;;;24.10;67.60;;;;;;5030597;28;20213;-60
2022/06/10 10:03:18;;;;;;;3.78;1.55;;;24.30;66.60;;;;;;5057816;28;20244;-61
2022/06/10 10:06:01;;;;;;;6.85;1.67;;;24.00;65.70;;;;;;5056563;28;20233;-62
2022/06/10 10:08:37;;;;;;;4.55;1.40;;;23.90;67.50;;;;;;5057159;28;20229;-60
2022/06/10 10:11:11;;;;;;;5.60;1.27;;;23.90;66.00;;;;;;5058160;28;20208;-62
2022/06/10 10:13:59;;;;;;;2.90;1.50;;;23.80;65.80;;;;;;5056452;28;20204;-61
2022/06/10 10:16:37;;;;;;;6.20;1.80;;;24.10;65.20;;;;;;5056633;28;20248;-60
2022/06/10 10:19:22;;;;;;;3.17;1.15;;;24.30;65.10;;;;;;5057196;28;20193;-60
2022/06/10 10:21:59;;;;;;;7.32;1.90;;;24.20;63.20;;;;;;5056705;28;20669;-63
2022/06/10 10:24:28;;;;;;;3.53;1.40;;;23.90;64.80;;;;;;5060437;28;20224;-62
2022/06/10 10:26:58;;;;;;;4.60;1.38;;;23.70;65.30;;;;;;5070857;28;20221;-60
2022/06/10 10:29:27;;;;;;;2.92;1.42;;;23.50;67.10;;;;;;5076148;28;20296;-62
2022/06/10 10:32:01;;;;;;;2.78;1.50;;;23.40;67.00;;;;;;5077358;28;20291;-63
2022/06/10 10:34:38;;;;;;;4.03;1.58;;;23.30;66.80;;;;;;5077442;28;20201;-63
2022/06/10 10:37:19;;;;;;;4.13;1.70;;;23.40;66.00;;;;;;5077725;28;20232;-62
2022/06/10 10:39:51;;;;;;;2.75;1.52;;;23.60;66.20;;;;;;5076597;28;20204;-59
2022/06/10 10:42:21;;;;;;;3.13;1.30;;;23.70;67.40;;;;;;5074223;28;20197;-60
2022/06/10 10:44:53;;;;;;;4.90;1.67;;;23.80;66.60;;;;;;5074122;28;20201;-60
2022/06/10 10:47:25;;;;;;;6.00;1.75;;;24.00;66.40;;;;;;5074112;28;20643;-60
2022/06/10 10:49:55;;;;;;;5.43;1.52;;;24.20;67.00;;;;;;5074127;28;20320;-60
2022/06/10 10:52:27;;;;;;;5.68;1.70;;;24.30;67.30;;;;;;5074148;28;20200;-60
2022/06/10 10:54:58;;;;;;;11.23;2.65;;;24.50;66.90;;;;;;5074400;28;20212;-60
2022/06/10 10:57:29;;;;;;;5.38;1.45;;;24.80;66.20;;;;;;5074340;28;20225;-59
2022/06/10 11:00:04;;;;;;;4.10;1.25;;;25.00;64.90;;;;;;5074338;28;20258;-60
2022/06/10 11:02:36;;;;;;;3.78;1.58;;;25.10;64.10;;;;;;5073659;28;20215;-59
2022/06/10 11:05:22;;;;;;;4.15;1.35;;;25.00;64.60;;;;;;5074182;28;20216;-60
2022/06/10 11:08:12;;;;;;;4.97;1.50;;;25.00;64.30;;;;;;5074107;28;20258;-59
2022/06/10 11:10:49;;;;;;;5.20;1.48;;;25.10;63.70;;;;;;5073896;28;20655;-59
2022/06/10 11:13:21;;;;;;;2.90;1.38;;;25.20;62.80;;;;;;5073593;28;20197;-59
2022/06/10 11:15:49;;;;;;;2.17;1.20;;;25.30;62.50;;;;;;5073467;28;20696;-59
2022/06/10 11:18:17;;;;;;;4.43;1.25;;;25.40;61.70;;;;;;5073325;28;20653;-59
2022/06/10 11:20:44;;;;;;;5.97;1.63;;;25.50;61.30;;;;;;5073213;28;20232;-58
2022/06/10 11:23:18;;;;;;;3.60;1.52;;;25.60;61.60;;;;;;5073042;28;20220;-58
2022/06/10 11:25:46;;;;;;;4.03;1.55;;;25.50;61.30;;;;;;5073486;28;20228;-59
2022/06/10 11:28:22;;;;;;;4.30;1.58;;;25.20;61.80;;;;;;5073039;28;20220;-58
2022/06/10 11:30:50;;;;;;;5.35;2.30;;;25.00;62.60;;;;;;5072332;28;20215;-59
2022/06/10 11:33:23;;;;;;;2.83;1.20;;;25.10;62.80;;;;;;5072803;28;20205;-59
2022/06/10 11:36:08;;;;;;;3.25;1.30;;;25.00;62.50;;;;;;5072444;28;20232;-59
2022/06/10 11:38:37;;;;;;;4.18;1.60;;;25.00;63.50;;;;;;5072884;28;20239;-61
2022/06/10 11:41:31;;;;;;;6.00;1.40;;;25.30;63.80;;;;;;5073365;28;20216;-65
2022/06/10 11:44:05;;;;;;;3.90;1.60;;;25.60;63.10;;;;;;5072205;28;20791;-61
2022/06/10 11:46:38;;;;;;;3.05;1.33;;;25.90;61.50;;;;;;5073034;28;20230;-62
2022/06/10 11:49:16;;;;;;;9.77;1.85;;;26.10;60.60;;;;;;5073650;28;20232;-62
2022/06/10 11:51:48;;;;;;;2.40;1.20;;;26.30;60.10;;;;;;5073661;28;20204;-62
2022/06/10 11:54:26;;;;;;;4.03;1.55;;;26.50;59.90;;;;;;5073066;28;20583;-62
2022/06/10 11:59:52;;;;;;;7.07;1.73;;;26.70;59.70;;;;;;5057102;28;20201;-61
2022/06/10 12:02:30;;;;;;;5.25;1.48;;;26.60;59.50;;;;;;5052349;28;20233;-63
2022/06/10 12:05:17;;;;;;;3.58;1.48;;;26.20;59.60;;;;;;5052487;28;20571;-62
2022/06/10 12:07:47;;;;;;;3.05;1.20;;;26.10;60.30;;;;;;5053335;28;20212;-63
2022/06/10 12:10:20;;;;;;;4.13;1.38;;;26.00;59.40;;;;;;5052519;28;20275;-62
2022/06/10 12:12:49;;;;;;;3.50;1.30;;;25.80;60.50;;;;;;5053418;28;20604;-60
2022/06/10 12:15:22;;;;;;;3.13;1.45;;;25.90;60.60;;;;;;5052825;28;20290;-60
2022/06/10 12:17:51;;;;;;;5.13;1.50;;;26.00;60.80;;;;;;5053073;28;20209;-60
2022/06/10 12:20:27;;;;;;;3.90;1.35;;;26.00;60.30;;;;;;5052545;28;20574;-59
2022/06/10 12:22:54;;;;;;;3.42;1.30;;;25.80;61.60;;;;;;5052868;28;20201;-58
2022/06/10 12:25:25;;;;;;;3.28;1.35;;;25.80;61.60;;;;;;5052688;28;20213;-59
2022/06/10 12:27:56;;;;;;;4.50;1.20;;;25.90;61.30;;;;;;5052763;28;20205;-60
2022/06/10 12:30:30;;;;;;;2.88;1.40;;;26.00;60.80;;;;;;5052616;28;20542;-60
2022/06/10 12:33:04;;;;;;;5.50;1.70;;;26.00;61.30;;;;;;5053011;28;20206;-61
2022/06/10 12:35:35;;;;;;;5.13;1.45;;;26.10;60.00;;;;;;5053035;28;20231;-59
2022/06/10 12:38:07;;;;;;;2.53;1.35;;;26.00;60.00;;;;;;5052587;28;20661;-59
2022/06/10 12:40:39;;;;;;;2.53;0.98;;;26.20;60.50;;;;;;5052255;28;20209;-60
2022/06/10 12:43:13;;;;;;;2.90;1.30;;;26.40;60.40;;;;;;5052708;28;20296;-60
2022/06/10 12:45:44;;;;;;;42.95;38.55;;;26.60;60.00;;;;;;5052691;28;20224;-59
2022/06/10 12:48:15;;;;;;;3.35;1.33;;;26.90;59.40;;;;;;5052744;28;20205;-60
2022/06/10 12:50:53;;;;;;;3.33;1.30;;;27.20;59.20;;;;;;5052469;28;20267;-60
2022/06/10 12:53:43;;;;;;;2.55;1.20;;;27.50;58.10;;;;;;5052384;28;20213;-60
2022/06/10 12:56:23;;;;;;;6.35;1.23;;;27.60;57.10;;;;;;5051984;28;20229;-60
2022/06/10 12:59:07;;;;;;;4.97;1.40;;;27.70;56.50;;;;;;5051954;28;20231;-60
2022/06/10 13:01:43;;;;;;;4.93;1.30;;;27.70;57.00;;;;;;5052449;28;20221;-60
2022/06/10 13:04:14;;;;;;;4.25;1.40;;;27.60;57.00;;;;;;5052474;28;20205;-59
2022/06/10 13:06:57;;;;;;;3.25;1.40;;;27.60;57.90;;;;;;5052280;28;20237;-59
2022/06/10 13:09:41;;;;;;;3.67;1.27;;;27.70;57.30;;;;;;5052032;28;20247;-59
2022/06/10 13:12:35;;;;;;;4.35;1.40;;;27.90;56.70;;;;;;5052187;28;20205;-59
2022/06/10 13:15:14;;;;;;;4.50;1.20;;;28.10;56.50;;;;;;5052334;28;20201;-60
2022/06/10 13:17:56;;;;;;;3.97;1.17;;;28.30;57.00;;;;;;5051726;28;20292;-60
2022/06/10 13:20:26;;;;;;;3.83;1.45;;;28.30;56.50;;;;;;5051963;28;20197;-60
2022/06/10 13:23:16;;;;;;;3.95;1.35;;;28.00;56.30;;;;;;5052193;28;20217;-60
2022/06/10 13:25:47;;;;;;;4.10;1.35;;;27.50;57.00;;;;;;5052029;28;20225;-60